LNI869 WIII-WIKK
Flight info
| Callsign | LNI869 |
|---|---|
| Flight time | 0h 49m |
| Altitude | 29000 |
| Route | ABASA W14 ALTAR |
| Aircraft | B738/M-SDE2E3FGHIRWXY/LB1 |
Departure
| Time | 2026-04-12 09:41 |
|---|---|
| Airport | Soekarno-Hatta International Airport (WIII) |
Arrival
| Time | 2026-04-12 10:31 |
|---|---|
| Airport | Depati Amir Airport (WIKK) |
| Time | Latitude | Longitude | Altitude | Speed | Heading |
|---|---|---|---|---|---|
| 2026-04-12 09:02 | -6.13128 | 106.65773 | 37 ft | 0 kts | 278° |
| 2026-04-12 09:27 | -6.13129 | 106.65780 | 37 ft | 2 kts | 278° |
| 2026-04-12 09:27 | -6.13132 | 106.65800 | 37 ft | 3 kts | 278° |
| 2026-04-12 09:27 | -6.13135 | 106.65817 | 37 ft | 3 kts | 275° |
| 2026-04-12 09:27 | -6.13133 | 106.65834 | 37 ft | 3 kts | 237° |
| 2026-04-12 09:28 | -6.13120 | 106.65847 | 35 ft | 3 kts | 204° |
| 2026-04-12 09:28 | -6.13107 | 106.65852 | 33 ft | 1 kts | 194° |
| 2026-04-12 09:28 | -6.13103 | 106.65853 | 35 ft | 0 kts | 194° |
| 2026-04-12 09:31 | -6.13112 | 106.65850 | 36 ft | 3 kts | 194° |
| 2026-04-12 09:32 | -6.13143 | 106.65842 | 34 ft | 6 kts | 194° |
| 2026-04-12 09:32 | -6.13195 | 106.65832 | 37 ft | 9 kts | 188° |
| 2026-04-12 09:32 | -6.13268 | 106.65825 | 37 ft | 11 kts | 185° |
| 2026-04-12 09:32 | -6.13334 | 106.65831 | 37 ft | 9 kts | 150° |
| 2026-04-12 09:33 | -6.13354 | 106.65882 | 37 ft | 9 kts | 76° |
| 2026-04-12 09:33 | -6.13331 | 106.65946 | 37 ft | 11 kts | 69° |
| 2026-04-12 09:33 | -6.13295 | 106.66035 | 37 ft | 16 kts | 68° |
| 2026-04-12 09:33 | -6.13249 | 106.66151 | 37 ft | 20 kts | 68° |
| 2026-04-12 09:34 | -6.13192 | 106.66291 | 35 ft | 23 kts | 68° |
| 2026-04-12 09:34 | -6.13135 | 106.66438 | 37 ft | 22 kts | 68° |
| 2026-04-12 09:34 | -6.13078 | 106.66579 | 36 ft | 22 kts | 69° |
| 2026-04-12 09:34 | -6.13023 | 106.66717 | 37 ft | 21 kts | 68° |
| 2026-04-12 09:35 | -6.12970 | 106.66851 | 37 ft | 20 kts | 68° |
| 2026-04-12 09:35 | -6.12918 | 106.66981 | 37 ft | 20 kts | 68° |
| 2026-04-12 09:35 | -6.12868 | 106.67106 | 37 ft | 19 kts | 68° |
| 2026-04-12 09:35 | -6.12820 | 106.67228 | 37 ft | 18 kts | 68° |
| 2026-04-12 09:36 | -6.12782 | 106.67322 | 37 ft | 10 kts | 71° |
| 2026-04-12 09:36 | -6.12804 | 106.67378 | 37 ft | 9 kts | 151° |
| 2026-04-12 09:36 | -6.12864 | 106.67400 | 38 ft | 8 kts | 161° |
| 2026-04-12 09:36 | -6.12877 | 106.67404 | 38 ft | 0 kts | 160° |
| 2026-04-12 09:40 | -6.12902 | 106.67413 | 51 ft | 7 kts | 159° |
| 2026-04-12 09:40 | -6.12968 | 106.67425 | 39 ft | 12 kts | 182° |
| 2026-04-12 09:40 | -6.13035 | 106.67400 | 39 ft | 9 kts | 218° |
| 2026-04-12 09:40 | -6.13063 | 106.67346 | 39 ft | 10 kts | 249° |
| 2026-04-12 09:41 | -6.13119 | 106.67204 | 39 ft | 50 kts | 248° |
| 2026-04-12 09:41 | -6.13345 | 106.66634 | 40 ft | 123 kts | 248° |
| 2026-04-12 09:41 | -6.13706 | 106.65637 | 157 ft | 170 kts | 253° |
| 2026-04-12 09:41 | -6.14116 | 106.64586 | 1097 ft | 157 kts | 248° |
| 2026-04-12 09:42 | -6.14555 | 106.63520 | 1616 ft | 179 kts | 249° |
| 2026-04-12 09:42 | -6.14603 | 106.63402 | 1647 ft | 183 kts | 249° |
| 2026-04-12 09:43 | -6.15888 | 106.60244 | 2812 ft | 214 kts | 247° |
| 2026-04-12 09:43 | -6.16451 | 106.58854 | 3532 ft | 219 kts | 246° |
| 2026-04-12 09:43 | -6.17040 | 106.57396 | 4127 ft | 229 kts | 246° |
| 2026-04-12 09:44 | -6.17650 | 106.55886 | 4821 ft | 236 kts | 246° |
| 2026-04-12 09:44 | -6.18266 | 106.54354 | 5599 ft | 237 kts | 246° |
| 2026-04-12 09:44 | -6.18948 | 106.52841 | 6328 ft | 240 kts | 234° |
| 2026-04-12 09:44 | -6.20190 | 106.51748 | 7018 ft | 240 kts | 205° |
| 2026-04-12 09:45 | -6.21818 | 106.51387 | 7667 ft | 246 kts | 179° |
| 2026-04-12 09:45 | -6.23508 | 106.51760 | 8332 ft | 252 kts | 162° |
| 2026-04-12 09:45 | -6.25157 | 106.52410 | 9023 ft | 257 kts | 156° |
| 2026-04-12 09:45 | -6.26568 | 106.53532 | 9699 ft | 265 kts | 126° |
| 2026-04-12 09:46 | -6.27255 | 106.55222 | 10320 ft | 270 kts | 97° |
| 2026-04-12 09:46 | -6.27092 | 106.57148 | 10645 ft | 290 kts | 70° |
| 2026-04-12 09:46 | -6.25947 | 106.58892 | 10830 ft | 314 kts | 41° |
| 2026-04-12 09:46 | -6.24101 | 106.60198 | 11029 ft | 337 kts | 29° |
| 2026-04-12 09:47 | -6.21963 | 106.61340 | 11235 ft | 358 kts | 25° |
| 2026-04-12 09:47 | -6.19687 | 106.62450 | 11740 ft | 367 kts | 24° |
| 2026-04-12 09:47 | -6.17372 | 106.63564 | 12428 ft | 371 kts | 24° |
| 2026-04-12 09:47 | -6.15043 | 106.64698 | 13147 ft | 373 kts | 25° |
| 2026-04-12 09:48 | -6.12702 | 106.65856 | 13806 ft | 377 kts | 25° |
| 2026-04-12 09:48 | -6.10340 | 106.67039 | 14378 ft | 382 kts | 25° |
| 2026-04-12 09:48 | -6.07956 | 106.68245 | 14953 ft | 386 kts | 26° |
| 2026-04-12 09:48 | -6.05548 | 106.69469 | 15529 ft | 389 kts | 26° |
| 2026-04-12 09:49 | -6.03121 | 106.70709 | 16106 ft | 393 kts | 26° |
| 2026-04-12 09:49 | -6.00677 | 106.71961 | 16683 ft | 397 kts | 26° |
| 2026-04-12 09:49 | -5.98207 | 106.73226 | 17230 ft | 400 kts | 26° |
| 2026-04-12 09:49 | -5.95712 | 106.74503 | 17796 ft | 404 kts | 27° |
| 2026-04-12 09:50 | -5.93197 | 106.75792 | 18310 ft | 408 kts | 27° |
| 2026-04-12 09:50 | -5.90663 | 106.77090 | 18794 ft | 410 kts | 27° |
| 2026-04-12 09:50 | -5.88110 | 106.78390 | 19289 ft | 412 kts | 26° |
| 2026-04-12 09:50 | -5.85535 | 106.79677 | 19778 ft | 415 kts | 26° |
| 2026-04-12 09:51 | -5.82944 | 106.80969 | 20264 ft | 417 kts | 26° |
| 2026-04-12 09:51 | -5.80341 | 106.82277 | 20748 ft | 419 kts | 27° |
| 2026-04-12 09:51 | -5.77732 | 106.83597 | 21191 ft | 422 kts | 27° |
| 2026-04-12 09:51 | -5.75108 | 106.84933 | 21653 ft | 424 kts | 27° |
| 2026-04-12 09:52 | -5.72507 | 106.86262 | 22103 ft | 426 kts | 27° |
| 2026-04-12 09:52 | -5.69862 | 106.87618 | 22558 ft | 428 kts | 27° |
| 2026-04-12 09:52 | -5.67208 | 106.88981 | 22982 ft | 430 kts | 27° |
| 2026-04-12 09:52 | -5.64536 | 106.90354 | 23400 ft | 432 kts | 27° |
| 2026-04-12 09:53 | -5.61851 | 106.91735 | 23740 ft | 435 kts | 27° |
| 2026-04-12 09:53 | -5.59152 | 106.93121 | 24067 ft | 437 kts | 27° |
| 2026-04-12 09:53 | -5.56434 | 106.94516 | 24387 ft | 439 kts | 28° |
| 2026-04-12 09:53 | -5.53705 | 106.95916 | 24711 ft | 442 kts | 28° |
| 2026-04-12 09:54 | -5.50962 | 106.97323 | 25018 ft | 444 kts | 28° |
| 2026-04-12 09:54 | -5.48204 | 106.98738 | 25321 ft | 447 kts | 28° |
| 2026-04-12 09:54 | -5.45431 | 107.00160 | 25626 ft | 449 kts | 28° |
| 2026-04-12 09:54 | -5.42639 | 107.01591 | 25925 ft | 451 kts | 28° |
| 2026-04-12 09:55 | -5.39842 | 107.03025 | 26215 ft | 453 kts | 28° |
| 2026-04-12 09:55 | -5.37024 | 107.04470 | 26505 ft | 455 kts | 28° |
| 2026-04-12 09:55 | -5.34197 | 107.05919 | 26782 ft | 458 kts | 28° |
| 2026-04-12 09:55 | -5.31440 | 107.07332 | 27021 ft | 460 kts | 28° |
| 2026-04-12 09:56 | -5.28587 | 107.08794 | 27263 ft | 462 kts | 28° |
| 2026-04-12 09:56 | -5.25718 | 107.10264 | 27509 ft | 464 kts | 28° |
| 2026-04-12 09:56 | -5.22840 | 107.11739 | 27758 ft | 465 kts | 28° |
| 2026-04-12 09:56 | -5.19946 | 107.13221 | 27859 ft | 469 kts | 28° |
| 2026-04-12 09:57 | -5.17041 | 107.14709 | 27857 ft | 468 kts | 28° |
| 2026-04-12 09:57 | -5.14129 | 107.16201 | 27868 ft | 471 kts | 28° |
| 2026-04-12 09:57 | -5.11249 | 107.17676 | 27912 ft | 471 kts | 28° |
| 2026-04-12 09:57 | -5.08341 | 107.19165 | 28176 ft | 469 kts | 28° |
| 2026-04-12 09:58 | -5.05430 | 107.20656 | 28429 ft | 470 kts | 28° |
| 2026-04-12 09:58 | -5.02510 | 107.22151 | 28686 ft | 472 kts | 28° |
| 2026-04-12 09:58 | -4.99586 | 107.23649 | 28872 ft | 474 kts | 28° |
| 2026-04-12 09:59 | -4.93550 | 107.26440 | 28863 ft | 482 kts | 19° |
| 2026-04-12 09:59 | -4.91353 | 107.27028 | 28864 ft | 483 kts | 14° |
| 2026-04-12 10:00 | -4.84032 | 107.28584 | 28857 ft | 483 kts | 13° |
| 2026-04-12 10:00 | -4.77462 | 107.29975 | 28866 ft | 482 kts | 13° |
| 2026-04-12 10:01 | -4.70911 | 107.31409 | 28869 ft | 482 kts | 13° |
| 2026-04-12 10:01 | -4.64369 | 107.32864 | 28869 ft | 482 kts | 13° |
| 2026-04-12 10:02 | -4.57834 | 107.34319 | 28871 ft | 482 kts | 13° |
| 2026-04-12 10:02 | -4.51277 | 107.35777 | 28869 ft | 482 kts | 13° |
| 2026-04-12 10:03 | -4.44717 | 107.37235 | 28868 ft | 483 kts | 13° |
| 2026-04-12 10:03 | -4.38145 | 107.38694 | 28874 ft | 484 kts | 13° |
| 2026-04-12 10:04 | -4.31607 | 107.40146 | 28869 ft | 485 kts | 13° |
| 2026-04-12 10:04 | -4.25016 | 107.41607 | 28866 ft | 485 kts | 13° |
| 2026-04-12 10:05 | -4.18418 | 107.43067 | 28857 ft | 486 kts | 13° |
| 2026-04-12 10:05 | -4.11814 | 107.44536 | 28873 ft | 486 kts | 13° |
| 2026-04-12 10:06 | -4.05212 | 107.46003 | 28870 ft | 486 kts | 13° |
| 2026-04-12 10:06 | -3.98603 | 107.47470 | 28871 ft | 486 kts | 13° |
| 2026-04-12 10:07 | -3.92003 | 107.48933 | 28862 ft | 486 kts | 13° |
| 2026-04-12 10:07 | -3.88648 | 107.49250 | 28852 ft | 487 kts | 356° |
| 2026-04-12 10:07 | -3.85352 | 107.48512 | 28872 ft | 487 kts | 339° |
| 2026-04-12 10:07 | -3.82370 | 107.46914 | 28871 ft | 487 kts | 323° |
| 2026-04-12 10:08 | -3.79724 | 107.44804 | 28884 ft | 486 kts | 321° |
| 2026-04-12 10:08 | -3.74468 | 107.40534 | 28866 ft | 486 kts | 321° |
| 2026-04-12 10:09 | -3.69218 | 107.36346 | 28862 ft | 485 kts | 321° |
| 2026-04-12 10:09 | -3.63917 | 107.32173 | 28865 ft | 484 kts | 322° |
| 2026-04-12 10:10 | -3.58616 | 107.28015 | 28868 ft | 484 kts | 322° |
| 2026-04-12 10:10 | -3.53321 | 107.23862 | 28872 ft | 483 kts | 322° |
| 2026-04-12 10:11 | -3.48032 | 107.19710 | 28866 ft | 483 kts | 322° |
| 2026-04-12 10:11 | -3.45391 | 107.17637 | 28587 ft | 485 kts | 322° |
| 2026-04-12 10:11 | -3.42705 | 107.15528 | 27589 ft | 491 kts | 322° |
| 2026-04-12 10:11 | -3.40021 | 107.13422 | 26702 ft | 490 kts | 322° |
| 2026-04-12 10:12 | -3.37345 | 107.11321 | 25886 ft | 489 kts | 322° |
| 2026-04-12 10:12 | -3.35578 | 107.09934 | 25482 ft | 485 kts | 322° |
| 2026-04-12 10:12 | -3.32940 | 107.07864 | 24832 ft | 480 kts | 321° |
| 2026-04-12 10:12 | -3.29455 | 107.05129 | 24000 ft | 469 kts | 321° |
| 2026-04-12 10:13 | -3.27773 | 107.03810 | 23594 ft | 459 kts | 321° |
| 2026-04-12 10:13 | -3.25297 | 107.01868 | 22917 ft | 446 kts | 321° |
| 2026-04-12 10:13 | -3.22868 | 106.99962 | 22324 ft | 442 kts | 321° |
| 2026-04-12 10:13 | -3.19675 | 106.97457 | 21544 ft | 438 kts | 321° |
| 2026-04-12 10:14 | -3.18058 | 106.96189 | 21156 ft | 436 kts | 321° |
| 2026-04-12 10:14 | -3.15681 | 106.94324 | 20582 ft | 432 kts | 321° |
| 2026-04-12 10:14 | -3.13326 | 106.92477 | 20013 ft | 428 kts | 321° |
| 2026-04-12 10:14 | -3.10988 | 106.90643 | 19434 ft | 426 kts | 321° |
| 2026-04-12 10:15 | -3.08666 | 106.88822 | 18864 ft | 423 kts | 321° |
| 2026-04-12 10:15 | -3.06390 | 106.87037 | 18307 ft | 420 kts | 321° |
| 2026-04-12 10:15 | -3.04099 | 106.85240 | 17678 ft | 417 kts | 321° |
| 2026-04-12 10:15 | -3.01828 | 106.83460 | 17095 ft | 413 kts | 321° |
| 2026-04-12 10:16 | -2.99575 | 106.81693 | 16530 ft | 409 kts | 321° |
| 2026-04-12 10:16 | -2.97350 | 106.79948 | 15979 ft | 405 kts | 321° |
| 2026-04-12 10:16 | -2.95146 | 106.78219 | 15430 ft | 401 kts | 321° |
| 2026-04-12 10:16 | -2.92955 | 106.76500 | 14798 ft | 400 kts | 321° |
| 2026-04-12 10:17 | -2.90774 | 106.74791 | 14227 ft | 397 kts | 321° |
| 2026-04-12 10:17 | -2.88608 | 106.73093 | 13672 ft | 394 kts | 321° |
| 2026-04-12 10:17 | -2.86459 | 106.71409 | 13068 ft | 391 kts | 321° |
| 2026-04-12 10:17 | -2.84327 | 106.69739 | 12500 ft | 387 kts | 321° |
| 2026-04-12 10:18 | -2.82224 | 106.68091 | 12028 ft | 381 kts | 321° |
| 2026-04-12 10:18 | -2.80151 | 106.66467 | 11523 ft | 376 kts | 321° |
| 2026-04-12 10:18 | -2.78101 | 106.64860 | 11024 ft | 373 kts | 321° |
| 2026-04-12 10:18 | -2.76078 | 106.63275 | 10738 ft | 363 kts | 321° |
| 2026-04-12 10:19 | -2.74122 | 106.61743 | 10541 ft | 351 kts | 321° |
| 2026-04-12 10:19 | -2.72233 | 106.60263 | 10393 ft | 339 kts | 321° |
| 2026-04-12 10:19 | -2.70402 | 106.58829 | 10236 ft | 329 kts | 321° |
| 2026-04-12 10:19 | -2.68639 | 106.57447 | 10107 ft | 314 kts | 320° |
| 2026-04-12 10:20 | -2.66962 | 106.56134 | 9941 ft | 301 kts | 320° |
| 2026-04-12 10:20 | -2.65318 | 106.54845 | 9616 ft | 300 kts | 320° |
| 2026-04-12 10:20 | -2.63682 | 106.53562 | 9289 ft | 298 kts | 320° |
| 2026-04-12 10:20 | -2.62074 | 106.52302 | 8964 ft | 297 kts | 320° |
| 2026-04-12 10:21 | -2.60433 | 106.51015 | 8645 ft | 295 kts | 320° |
| 2026-04-12 10:21 | -2.58824 | 106.49753 | 8310 ft | 294 kts | 320° |
| 2026-04-12 10:21 | -2.57243 | 106.48514 | 7997 ft | 292 kts | 320° |
| 2026-04-12 10:21 | -2.55646 | 106.47263 | 7678 ft | 291 kts | 321° |
| 2026-04-12 10:22 | -2.54056 | 106.46017 | 7360 ft | 290 kts | 321° |
| 2026-04-12 10:22 | -2.52469 | 106.44775 | 7042 ft | 289 kts | 321° |
| 2026-04-12 10:22 | -2.50889 | 106.43537 | 6715 ft | 289 kts | 321° |
| 2026-04-12 10:22 | -2.49312 | 106.42294 | 6394 ft | 288 kts | 318° |
| 2026-04-12 10:23 | -2.48100 | 106.40734 | 6044 ft | 285 kts | 293° |
| 2026-04-12 10:23 | -2.47463 | 106.38869 | 5715 ft | 283 kts | 285° |
| 2026-04-12 10:23 | -2.46918 | 106.36979 | 5394 ft | 282 kts | 285° |
| 2026-04-12 10:23 | -2.46383 | 106.35093 | 5037 ft | 282 kts | 285° |
| 2026-04-12 10:24 | -2.45843 | 106.33210 | 4721 ft | 281 kts | 285° |
| 2026-04-12 10:24 | -2.45300 | 106.31337 | 4414 ft | 280 kts | 285° |
| 2026-04-12 10:24 | -2.44753 | 106.29469 | 4089 ft | 280 kts | 285° |
| 2026-04-12 10:24 | -2.44205 | 106.27608 | 3775 ft | 279 kts | 285° |
| 2026-04-12 10:25 | -2.43657 | 106.25754 | 3478 ft | 277 kts | 285° |
| 2026-04-12 10:25 | -2.43119 | 106.23937 | 3349 ft | 269 kts | 285° |
| 2026-04-12 10:25 | -2.42596 | 106.22171 | 3217 ft | 261 kts | 285° |
| 2026-04-12 10:25 | -2.42067 | 106.20466 | 3088 ft | 253 kts | 291° |
| 2026-04-12 10:26 | -2.41027 | 106.19101 | 2984 ft | 246 kts | 323° |
| 2026-04-12 10:26 | -2.39508 | 106.18433 | 2935 ft | 233 kts | 348° |
| 2026-04-12 10:26 | -2.37943 | 106.18311 | 2839 ft | 219 kts | 360° |
| 2026-04-12 10:26 | -2.36467 | 106.18327 | 2777 ft | 206 kts | 0° |
| 2026-04-12 10:27 | -2.35067 | 106.18344 | 2718 ft | 200 kts | 0° |
| 2026-04-12 10:27 | -2.33682 | 106.18355 | 2644 ft | 198 kts | 0° |
| 2026-04-12 10:27 | -2.32318 | 106.18235 | 2514 ft | 198 kts | 348° |
| 2026-04-12 10:27 | -2.30986 | 106.17902 | 2368 ft | 197 kts | 343° |
| 2026-04-12 10:28 | -2.29665 | 106.17536 | 2219 ft | 196 kts | 345° |
| 2026-04-12 10:28 | -2.28371 | 106.17184 | 2058 ft | 193 kts | 344° |
| 2026-04-12 10:28 | -2.27121 | 106.16847 | 1895 ft | 178 kts | 344° |
| 2026-04-12 10:28 | -2.25969 | 106.16536 | 1767 ft | 163 kts | 345° |
| 2026-04-12 10:29 | -2.24910 | 106.16250 | 1689 ft | 155 kts | 345° |
| 2026-04-12 10:29 | -2.23856 | 106.15965 | 1487 ft | 157 kts | 345° |
| 2026-04-12 10:29 | -2.22806 | 106.15681 | 1295 ft | 156 kts | 345° |
| 2026-04-12 10:29 | -2.21763 | 106.15400 | 1084 ft | 155 kts | 345° |
| 2026-04-12 10:30 | -2.20731 | 106.15120 | 905 ft | 153 kts | 345° |
| 2026-04-12 10:30 | -2.19710 | 106.14838 | 755 ft | 151 kts | 345° |
| 2026-04-12 10:30 | -2.18719 | 106.14566 | 484 ft | 143 kts | 345° |
| 2026-04-12 10:30 | -2.17742 | 106.14305 | 277 ft | 146 kts | 345° |
| 2026-04-12 10:31 | -2.16768 | 106.14050 | 115 ft | 141 kts | 346° |
| 2026-04-12 10:31 | -2.16159 | 106.13881 | 106 ft | 36 kts | 344° |
| 2026-04-12 10:31 | -2.15940 | 106.13820 | 101 ft | 33 kts | 345° |
| 2026-04-12 10:31 | -2.15726 | 106.13763 | 100 ft | 24 kts | 345° |
| 2026-04-12 10:32 | -2.15657 | 106.13756 | 100 ft | 3 kts | 15° |
| 2026-04-12 10:32 | -2.15637 | 106.13777 | 99 ft | 8 kts | 76° |
| 2026-04-12 10:32 | -2.15629 | 106.13838 | 99 ft | 8 kts | 78° |
| 2026-04-12 10:32 | -2.15617 | 106.13892 | 100 ft | 8 kts | 77° |
| 2026-04-12 10:33 | -2.15619 | 106.13945 | 100 ft | 8 kts | 118° |
| 2026-04-12 10:33 | -2.15667 | 106.13964 | 100 ft | 8 kts | 168° |
| 2026-04-12 10:33 | -2.15718 | 106.13975 | 101 ft | 7 kts | 166° |
| 2026-04-12 10:33 | -2.15752 | 106.14002 | 101 ft | 6 kts | 90° |
| 2026-04-12 10:34 | -2.15747 | 106.14021 | 101 ft | 0 kts | 73° |